AirNav   ATP
 
 1267 users online  

9II4 Cruzan Field Airport
Arcadia, Indiana, USA

GOING TO ARCADIA?


FAA INFORMATION EFFECTIVE 16 AUGUST 2018

Location

FAA Identifier: 9II4
Lat/Long: 40-10-21.0000N / 085-56-41.0000W
40-10.350000N / 085-56.683333W
40.1725000 / -85.9447222
(estimated)
Elevation: 845 ft. / 258 m (estimated)
Variation: 03W (1990)
From city: 4 miles E of ARCADIA, IN
Time zone: UTC -4 (UTC -5 during Standard Time)
Zip code: 46034

Airport Operations

Airport use: Private use. Permission required prior to landing
Activation date: 11/1992
Control tower: no
ARTCC: CHICAGO CENTER
FSS: TERRE HAUTE FLIGHT SERVICE STATION
Attendance: UNATNDD
Wind indicator: yes
Segmented circle: no

Airport Communications

WX AWOS-3 at UMP (15 nm S): 119.375 (317-842-3911)
WX AWOS-3 at AID (16 nm E): 128.55 (765-378-1510)
WX AWOS-3PT at TYQ (16 nm SW): 120.725 (317-769-3154)
WX AWOS-3 at MQJ (20 nm S): 124.175 (317-335-3037)

Nearby radio navigation aids

VOR radial/distance  VOR name  Freq  Var
OKKr171/21.9KOKOMO VORTAC113.5005W
MZZr215/22.8MARION VOR/DME108.6003W
MIEr264/25.5MUNCIE VOR/DME114.4003W
VHPr041/29.0BRICKYARD VORTAC116.3001E
GUSr164/29.9GRISSOM VORTAC108.4502W
SHBr349/32.9SHELBYVILLE VOR/DME112.0001E

 
NDB name  Hdg/Dist  Freq  Var  ID
METROPOLITAN022/14.933803WUMP ..- -- .--.
NEW CASTLE307/33.738506WUWL ..- .-- .-..

Airport Services

Runway Information

Runway 9/27

Dimensions: 2400 x 70 ft. / 732 x 21 m
Surface: turf
RUNWAY 9  RUNWAY 27
Traffic pattern: leftleft
Displaced threshold: no560 ft.
Obstructions: none35 ft. bldg, 140 ft. from runway

Airport Ownership and Management from official FAA records

Ownership: Privately-owned
Owner: ROBERT E. CRUZAN II
26410 S.R. 213
ARCADIA, IN 46030
Phone 317-439-0800
Manager: ROBERT E. CRUZAN II
26410 S.R. 213
ARCADIA, IN 46030
Phone 317-439-0800

Airport Operational Statistics

Aircraft based on the field: 4
Single engine airplanes: 1
Ultralights: 3
    

Instrument Procedures

There are no published instrument procedures at 9II4.

Some nearby airports with instrument procedures:

5I4 - Sheridan Airport (12 nm W)
KUMP - Indianapolis Metropolitan Airport (15 nm S)
KAID - Anderson Municipal Airport-Darlington Field (16 nm E)
KTYQ - Indianapolis Executive Airport (16 nm SW)
KMQJ - Indianapolis Regional Airport (20 nm S)
 
Loc | Ops | Rwys | IFR | FBO | Links
Com | Nav | Svcs | Stats | Notes


 
Area around 9II4 (Cruzan Field Airport)
 
Road maps at: MapQuest Bing Google
 
Aerial photo
No photo
 
Sectional chart

 
Airport distance calculator
Flying to Cruzan Field Airport? Find the distance to fly.

From to 9II4

Sunrise and sunset
Times for 16-Aug-2018
 Local
(UTC-4)
 Zulu
(UTC)
Morning civil twilight06:2810:28
Sunrise06:5710:57
Sunset20:3900:39
Evening civil twilight21:0801:08

Current date and time
Zulu (UTC)  16-Aug-2018 21:57:00
Local (UTC-4)  16-Aug-2018 17:57:00
 
METAR
KAID 
15nm E 
161945Z 18015KT 10SM SCT011 OVC030 24/22 A2999
KTYQ 
16nm SW 
162135Z AUTO 23006KT 7SM SCT022 BKN029 BKN060 24/23 A2996 RMK AO2 LTG DSNT S AND W T02430233
KMQJ 
20nm S 
162136Z AUTO 20008KT 10SM SCT015 SCT023 BKN110 26/25 A2996 RMK AO1
KOKK 
22nm N 
162056Z AUTO 22007KT 10SM SCT018 26/23 A2996 RMK AO2 SLP140 T02610228 56011
KMZZ 
23nm NE 
162135Z AUTO 00000KT 7SM SCT017 BKN026 BKN044 26/07 A2996 RMK AO2 P0001 T02600068
KMIE 
25nm E 
162100Z 22008KT 9SM BKN010 OVC026 25/23 A2997 RMK AO2 CIG 008V015 T02500228
KEYE 
26nm SW 
162124Z AUTO 18006KT 10SM SCT024 SCT041 BKN065 27/22 A2994 RMK AO2 T02670222
KFKR 
29nm W 
162135Z AUTO 32004KT 5SM -VCTSRA OVC085 26/23 A2997 RMK AO2 LTG DSNT S THRU W T02590233
KGUS 
29nm N 
162128Z AUTO 24006KT 2 1/4SM +RA BR OVC025 26/24 A2994 RMK AO2 VIS 2 1/4V10 RAB18 OVC V BKN CIG 022 RWY05 SLP137 $
TAF
KGUS 
29nm N 
161930Z 1619/1801 21012KT 9999 SCT015 BKN020 BKN045 OVC065 QNH2995INS TEMPO 1621/1624 27010G15KT 8000 -TSRA BKN030CB BECMG 1623/1624 19006KT 9999 SCT010 BKN020 QNH2998INS BECMG 1705/1706 20006KT 6000 BR SCT005 BKN020 QNH2999INS TEMPO 1709/1715 1200 BR BECMG 1715/1716 30006KT 9000 -SHRA SCT010 BKN030 QNH3002INS BECMG 1722/1723 36006KT 9999 NSW FEW010 BKN030 QNH3003INS TX30/1620Z TN23/1711Z
KIND 
31nm SW 
162008Z 1620/1724 20010KT P6SM VCTS SCT020CB BKN050 TEMPO 1620/1623 2SM SHRA OVC020 FM170100 21006KT P6SM VCSH BKN080 FM170800 VRB04KT P6SM BKN050 FM171000 23005KT P6SM BKN015 FM171600 24005KT P6SM BKN060
NOTAMs
Click for the latest NOTAMs
NOTAMs are issued by the DoD/FAA and will open in a separate window not controlled by AirNav.

 

 
 

Would you like to see your business listed on this page?

 If your business provides an interesting product or service to pilots, flight crews, aircraft, or users of the Cruzan Field Airport, you should consider listing it here.  To start the listing process, click on the button below
 
Add a business
 

Other Pages about Cruzan Field Airport

Update a link
 
Copyright © AirNav, LLC. All rights reserved. Privacy Policy  Contact